Time;durP1;ratioP1;P1;durP2;ratioP2;P2;SDS_P1;SDS_P2;PMS_P1;PMS_P2;Temp;Humidity;BMP_temperature;BMP_pressure;BME280_temperature;BME280_humidity;BME280_pressure;Samples;Min_cycle;Max_cycle;Signal;HPM_P1;HPM_P2
2023/06/09 00:00:47;;;;;;;19.30;7.97;;;11.90;99.90;;;;;;5036044;28;20037;-54
2023/06/09 00:03:16;;;;;;;18.08;7.65;;;11.90;99.90;;;;;;5036408;28;20037;-53
2023/06/09 00:05:43;;;;;;;23.55;9.00;;;11.90;99.90;;;;;;5036011;28;20047;-52
2023/06/09 00:08:09;;;;;;;20.02;8.85;;;11.80;99.90;;;;;;5031774;28;20118;-49
2023/06/09 00:10:35;;;;;;;25.58;9.20;;;11.80;99.90;;;;;;5035705;28;20541;-51
2023/06/09 00:13:01;;;;;;;24.88;10.07;;;11.80;99.90;;;;;;5035065;28;20044;-53
2023/06/09 00:15:26;;;;;;;22.52;8.88;;;11.80;99.90;;;;;;5034359;28;20073;-48
2023/06/09 00:17:53;;;;;;;21.33;8.52;;;11.80;99.90;;;;;;5032517;28;20056;-50
2023/06/09 00:20:20;;;;;;;32.58;9.35;;;11.80;99.90;;;;;;5030389;28;20052;-52
2023/06/09 00:22:48;;;;;;;21.88;8.27;;;11.80;99.90;;;;;;5024754;28;20060;-53
2023/06/09 00:25:15;;;;;;;19.88;7.93;;;11.80;99.90;;;;;;5033470;28;20037;-52
2023/06/09 00:27:45;;;;;;;24.10;8.30;;;11.70;99.90;;;;;;5036007;28;20118;-52
2023/06/09 00:30:13;;;;;;;29.58;8.73;;;11.80;99.90;;;;;;5032466;28;20045;-54
2023/06/09 00:32:39;;;;;;;21.23;7.88;;;11.80;99.90;;;;;;5031352;28;20043;-53
2023/06/09 00:35:05;;;;;;;28.80;7.72;;;11.80;99.90;;;;;;5031662;28;21071;-51
2023/06/09 00:37:32;;;;;;;26.48;7.88;;;11.80;99.90;;;;;;5031318;28;20102;-52
2023/06/09 00:39:57;;;;;;;24.10;7.72;;;11.80;99.90;;;;;;5030137;28;20053;-50
2023/06/09 00:42:24;;;;;;;19.75;7.22;;;11.70;99.90;;;;;;5027390;28;20162;-52
2023/06/09 00:44:50;;;;;;;20.55;7.53;;;11.70;99.90;;;;;;5028331;28;20078;-49
2023/06/09 00:47:17;;;;;;;22.17;7.63;;;11.70;99.90;;;;;;5031361;28;20025;-53
2023/06/09 00:49:45;;;;;;;21.98;7.68;;;11.80;99.90;;;;;;5035174;28;20079;-53
2023/06/09 00:52:11;;;;;;;17.88;6.70;;;11.70;99.90;;;;;;5032795;28;20037;-52
2023/06/09 00:54:38;;;;;;;23.17;7.78;;;11.70;99.90;;;;;;5034030;28;20075;-50
2023/06/09 00:57:05;;;;;;;22.13;7.43;;;11.70;99.90;;;;;;5030003;28;20157;-52
2023/06/09 00:59:36;;;;;;;20.23;7.10;;;11.70;99.90;;;;;;5034014;28;20052;-53
2023/06/09 01:02:05;;;;;;;23.02;7.68;;;11.70;99.90;;;;;;5032084;28;20038;-52
2023/06/09 01:04:34;;;;;;;20.10;6.95;;;11.70;99.90;;;;;;5026978;28;20040;-48
2023/06/09 01:07:20;;;;;;;25.35;8.20;;;11.70;99.90;;;;;;5028450;28;20067;-49
2023/06/09 01:10:06;;;;;;;21.65;8.27;;;11.70;99.90;;;;;;5032218;28;20111;-50
2023/06/09 01:13:02;;;;;;;20.10;7.28;;;11.70;99.90;;;;;;5032604;28;20048;-48
2023/06/09 01:15:31;;;;;;;20.58;8.55;;;11.70;99.90;;;;;;5038685;28;20057;-49
2023/06/09 01:18:03;;;;;;;19.73;7.35;;;11.70;99.90;;;;;;5028602;28;20038;-48
2023/06/09 01:20:56;;;;;;;24.33;8.13;;;11.70;99.90;;;;;;5014113;28;20126;-49
2023/06/09 01:23:28;;;;;;;25.35;8.63;;;11.70;99.90;;;;;;5030118;28;20608;-50
2023/06/09 01:25:56;;;;;;;19.15;7.68;;;11.70;99.90;;;;;;5033780;28;20072;-49
2023/06/09 01:28:23;;;;;;;19.88;7.95;;;11.60;99.90;;;;;;5020086;28;20103;-50
2023/06/09 01:30:51;;;;;;;23.17;7.68;;;11.70;99.90;;;;;;5033071;28;20051;-49
2023/06/09 01:33:24;;;;;;;25.45;8.20;;;11.70;99.90;;;;;;5033186;28;20492;-49
2023/06/09 01:35:51;;;;;;;20.63;7.88;;;11.60;99.90;;;;;;5027119;28;20044;-50
2023/06/09 01:38:22;;;;;;;26.98;7.97;;;11.60;99.90;;;;;;5033068;28;20477;-49
2023/06/09 01:40:49;;;;;;;23.40;8.63;;;11.70;99.90;;;;;;5033640;28;20060;-50
2023/06/09 01:43:14;;;;;;;19.38;7.57;;;11.60;99.90;;;;;;5030438;28;20049;-53
2023/06/09 01:45:40;;;;;;;21.80;8.25;;;11.60;99.90;;;;;;5030148;28;20043;-50
2023/06/09 01:48:40;;;;;;;17.50;7.68;;;11.60;99.90;;;;;;5029841;28;20047;-50
2023/06/09 01:51:21;;;;;;;17.40;7.90;;;11.60;99.90;;;;;;5030797;28;20046;-52
2023/06/09 01:53:57;;;;;;;21.17;8.05;;;11.60;99.90;;;;;;5033031;28;20049;-50
2023/06/09 01:56:42;;;;;;;25.75;8.38;;;11.60;99.90;;;;;;5039820;28;20049;-53
2023/06/09 01:59:16;;;;;;;20.98;8.30;;;11.60;99.90;;;;;;5030782;28;20118;-52
2023/06/09 02:01:44;;;;;;;22.80;8.80;;;11.60;99.90;;;;;;5032194;28;20053;-51
2023/06/09 02:04:11;;;;;;;18.70;8.50;;;11.60;99.90;;;;;;5029708;28;20033;-50
2023/06/09 02:06:38;;;;;;;24.20;8.52;;;11.60;99.90;;;;;;5028622;28;20044;-51
2023/06/09 02:09:04;;;;;;;18.63;8.48;;;11.60;99.90;;;;;;5031002;28;20030;-51
2023/06/09 02:11:30;;;;;;;24.27;9.18;;;11.60;99.90;;;;;;5029582;28;20041;-51
2023/06/09 02:13:56;;;;;;;16.70;8.40;;;11.60;99.90;;;;;;5037116;28;20041;-49
2023/06/09 02:16:24;;;;;;;26.45;9.15;;;11.50;99.90;;;;;;5033080;28;20045;-53
2023/06/09 02:18:50;;;;;;;24.25;8.88;;;11.60;99.90;;;;;;5033163;28;22484;-51
2023/06/09 02:21:17;;;;;;;23.55;8.85;;;11.60;99.90;;;;;;5032228;28;20053;-49
2023/06/09 02:23:43;;;;;;;27.17;9.25;;;11.50;99.90;;;;;;5033415;28;20060;-52
2023/06/09 02:26:09;;;;;;;23.58;9.85;;;11.50;99.90;;;;;;5039390;28;20126;-51
2023/06/09 02:28:35;;;;;;;23.45;9.60;;;11.50;99.90;;;;;;5026523;28;20047;-50
2023/06/09 02:31:01;;;;;;;22.85;9.40;;;11.50;99.90;;;;;;5036601;28;20052;-50
2023/06/09 02:33:27;;;;;;;23.42;9.15;;;11.50;99.90;;;;;;5036011;28;20041;-51
2023/06/09 02:35:54;;;;;;;21.55;9.57;;;11.50;99.90;;;;;;5031943;28;20527;-51
2023/06/09 02:38:21;;;;;;;26.73;10.20;;;11.50;99.90;;;;;;5027281;28;20045;-49
2023/06/09 02:40:49;;;;;;;28.08;9.25;;;11.50;99.90;;;;;;5035902;28;20080;-54
2023/06/09 02:43:15;;;;;;;26.23;8.95;;;11.50;99.90;;;;;;5031858;28;20048;-50
2023/06/09 02:45:40;;;;;;;19.65;8.35;;;11.50;99.90;;;;;;5034813;28;20048;-51
2023/06/09 02:48:06;;;;;;;23.48;8.85;;;11.50;99.90;;;;;;5030461;28;20048;-50
2023/06/09 02:50:32;;;;;;;23.25;8.82;;;11.50;99.90;;;;;;5035388;28;20045;-48
2023/06/09 02:52:58;;;;;;;22.50;9.10;;;11.50;99.90;;;;;;5032376;28;20045;-52
2023/06/09 02:55:24;;;;;;;26.90;8.68;;;11.50;99.90;;;;;;5033220;28;20053;-53
2023/06/09 02:57:50;;;;;;;16.30;8.23;;;11.50;99.90;;;;;;5032048;28;20589;-51
2023/06/09 03:00:16;;;;;;;22.77;8.88;;;11.50;99.90;;;;;;5033226;28;20048;-51
2023/06/09 03:02:45;;;;;;;21.48;8.68;;;11.50;99.90;;;;;;5033081;28;20077;-52
2023/06/09 03:05:11;;;;;;;26.33;8.98;;;11.50;99.90;;;;;;5038866;28;20056;-50
2023/06/09 03:07:36;;;;;;;23.85;8.20;;;11.50;99.90;;;;;;5036202;28;21217;-50
2023/06/09 03:10:04;;;;;;;25.77;8.95;;;11.50;99.90;;;;;;5036041;28;20048;-52
2023/06/09 03:12:30;;;;;;;23.60;7.88;;;11.40;99.90;;;;;;5037089;28;20033;-50
2023/06/09 03:14:56;;;;;;;18.20;8.48;;;11.40;99.90;;;;;;5034226;28;20048;-50
2023/06/09 03:17:21;;;;;;;24.38;9.23;;;11.50;99.90;;;;;;5036530;28;20095;-51
2023/06/09 03:19:47;;;;;;;21.85;8.73;;;11.40;99.90;;;;;;5034031;28;20049;-49
2023/06/09 03:22:13;;;;;;;23.20;8.40;;;11.50;99.90;;;;;;5034331;28;20080;-49
2023/06/09 03:24:39;;;;;;;25.35;9.35;;;11.50;99.90;;;;;;5037419;28;20057;-51
2023/06/09 03:27:05;;;;;;;24.60;9.52;;;11.50;99.90;;;;;;5032622;28;20036;-52
2023/06/09 03:29:31;;;;;;;21.45;8.43;;;11.50;99.90;;;;;;5036238;28;20034;-50
2023/06/09 03:31:57;;;;;;;18.23;8.98;;;11.50;99.90;;;;;;5039717;28;20519;-48
2023/06/09 03:34:23;;;;;;;21.33;9.02;;;11.50;99.90;;;;;;5031581;28;20044;-52
2023/06/09 03:36:48;;;;;;;20.05;9.27;;;11.50;99.90;;;;;;5024615;28;20096;-49
2023/06/09 03:39:16;;;;;;;24.27;9.90;;;11.50;99.90;;;;;;5035667;28;20084;-49
2023/06/09 03:41:42;;;;;;;20.67;10.00;;;11.50;99.90;;;;;;5034728;28;20426;-51
2023/06/09 03:44:08;;;;;;;22.40;10.27;;;11.50;99.90;;;;;;5036201;28;20041;-50
2023/06/09 03:46:33;;;;;;;25.50;10.02;;;11.50;99.90;;;;;;5025716;28;20175;-49
2023/06/09 03:48:59;;;;;;;25.85;10.43;;;11.60;99.90;;;;;;5034578;28;20033;-53
2023/06/09 03:51:26;;;;;;;23.67;9.85;;;11.60;99.90;;;;;;5034325;28;20041;-48
2023/06/09 03:53:52;;;;;;;24.45;10.25;;;11.60;99.90;;;;;;5032880;28;20037;-49
2023/06/09 03:56:18;;;;;;;23.05;10.55;;;11.60;99.90;;;;;;5036649;28;20102;-51
2023/06/09 03:58:43;;;;;;;28.55;10.55;;;11.60;99.90;;;;;;5035953;28;20040;-51
2023/06/09 04:01:10;;;;;;;27.55;10.45;;;11.60;99.90;;;;;;5034758;28;20045;-49
2023/06/09 04:03:39;;;;;;;24.65;10.57;;;11.60;99.90;;;;;;5035208;28;20041;-49
2023/06/09 04:06:05;;;;;;;29.50;10.68;;;11.70;99.90;;;;;;5035617;28;20029;-49
2023/06/09 04:08:31;;;;;;;22.33;10.38;;;11.70;99.90;;;;;;5034127;28;20057;-51
2023/06/09 04:10:58;;;;;;;35.20;11.05;;;11.70;99.90;;;;;;5035786;28;20053;-49
2023/06/09 04:13:23;;;;;;;19.50;11.13;;;11.70;99.90;;;;;;5036154;28;20049;-48
2023/06/09 04:15:49;;;;;;;29.70;10.93;;;11.80;99.90;;;;;;5034751;28;20129;-49
2023/06/09 04:18:15;;;;;;;27.45;11.23;;;11.80;99.90;;;;;;5031851;28;20049;-52
2023/06/09 04:20:42;;;;;;;28.20;11.63;;;11.80;99.90;;;;;;5017792;28;20048;-50
2023/06/09 04:23:08;;;;;;;31.52;10.85;;;11.80;99.90;;;;;;5036392;28;20608;-48
2023/06/09 04:25:35;;;;;;;32.13;12.05;;;11.90;99.90;;;;;;5035578;28;20041;-49
2023/06/09 04:28:05;;;;;;;25.85;11.32;;;11.90;99.90;;;;;;5033306;28;20048;-49
2023/06/09 04:30:34;;;;;;;27.60;10.77;;;12.00;99.90;;;;;;5034637;28;20052;-50
2023/06/09 04:33:00;;;;;;;30.10;10.10;;;12.00;99.90;;;;;;5033508;28;20072;-49
2023/06/09 04:35:26;;;;;;;38.58;11.35;;;12.00;99.90;;;;;;5037339;28;20037;-49
2023/06/09 04:37:52;;;;;;;32.92;10.65;;;12.10;99.90;;;;;;5034189;28;20111;-54
2023/06/09 04:40:25;;;;;;;24.58;10.68;;;12.10;99.90;;;;;;5032934;28;20037;-49
2023/06/09 04:43:01;;;;;;;24.60;10.18;;;12.20;99.90;;;;;;5035961;28;20050;-49
2023/06/09 04:45:34;;;;;;;21.92;9.82;;;12.20;99.90;;;;;;5036302;28;20052;-50
2023/06/09 04:48:03;;;;;;;;;;;12.30;99.90;;;;;;5032759;28;20040;-50
2023/06/09 04:50:36;;;;;;;27.63;9.27;;;12.30;99.90;;;;;;5035908;28;19995;-50
2023/06/09 04:53:07;;;;;;;26.70;9.13;;;12.30;99.90;;;;;;5039635;28;20106;-48
2023/06/09 04:55:35;;;;;;;22.88;8.80;;;12.40;99.90;;;;;;5033366;28;20053;-49
2023/06/09 04:58:01;;;;;;;27.35;8.85;;;12.50;99.90;;;;;;5030724;28;20479;-52
2023/06/09 05:00:28;;;;;;;20.90;8.40;;;12.50;99.90;;;;;;5032619;28;20174;-49
2023/06/09 05:02:57;;;;;;;21.77;8.55;;;12.60;99.90;;;;;;5035774;28;20037;-52
2023/06/09 05:05:24;;;;;;;25.55;8.25;;;12.60;99.90;;;;;;5034315;28;20048;-50
2023/06/09 05:07:50;;;;;;;22.17;8.75;;;12.70;99.90;;;;;;5031317;28;20167;-48
2023/06/09 05:10:16;;;;;;;25.83;8.55;;;12.80;99.90;;;;;;5031411;28;20044;-50
2023/06/09 05:12:42;;;;;;;33.80;8.52;;;12.80;99.90;;;;;;5035098;28;20117;-52
2023/06/09 05:15:09;;;;;;;25.83;8.48;;;12.90;99.90;;;;;;5029166;28;20063;-49
2023/06/09 05:17:38;;;;;;;25.52;8.75;;;12.90;99.90;;;;;;5034275;28;20041;-49
2023/06/09 05:20:07;;;;;;;26.73;9.77;;;13.00;99.90;;;;;;5034919;28;20033;-50
2023/06/09 05:22:35;;;;;;;27.38;8.43;;;13.00;99.90;;;;;;5033782;28;20057;-49
2023/06/09 05:25:02;;;;;;;35.88;8.52;;;13.10;99.90;;;;;;5032939;28;20041;-51
2023/06/09 05:27:28;;;;;;;21.98;8.98;;;13.10;99.90;;;;;;5032173;28;20088;-51
2023/06/09 05:29:53;;;;;;;21.60;8.43;;;13.20;99.90;;;;;;5031099;28;20470;-49
2023/06/09 05:32:19;;;;;;;26.13;9.57;;;13.20;99.90;;;;;;5035114;28;20045;-51
2023/06/09 05:34:45;;;;;;;25.02;8.25;;;13.30;99.90;;;;;;5034294;28;20041;-53
2023/06/09 05:37:13;;;;;;;25.90;8.27;;;13.40;99.90;;;;;;5017174;28;20481;-49
2023/06/09 05:39:42;;;;;;;20.27;7.97;;;13.40;99.90;;;;;;5030010;28;20037;-49
2023/06/09 05:42:09;;;;;;;18.85;7.50;;;13.40;99.90;;;;;;5035496;28;20056;-48
2023/06/09 05:44:35;;;;;;;20.55;7.70;;;13.50;99.90;;;;;;5035275;28;20477;-52
2023/06/09 05:47:01;;;;;;;23.38;8.05;;;13.50;99.90;;;;;;5049834;28;20102;-52
2023/06/09 05:49:27;;;;;;;22.27;8.10;;;13.50;99.90;;;;;;5033973;28;20131;-51
2023/06/09 05:51:53;;;;;;;25.02;8.00;;;13.60;99.90;;;;;;5034785;28;20044;-49
2023/06/09 05:54:19;;;;;;;20.30;7.30;;;13.60;99.90;;;;;;5034183;28;20087;-50
2023/06/09 05:56:48;;;;;;;18.98;7.68;;;13.70;99.90;;;;;;5036736;28;20094;-50
2023/06/09 05:59:15;;;;;;;19.55;8.38;;;13.70;99.90;;;;;;5038607;28;20048;-51
2023/06/09 06:01:44;;;;;;;18.55;7.35;;;13.80;99.90;;;;;;5039377;28;20071;-49
2023/06/09 06:04:10;;;;;;;26.23;8.05;;;13.90;99.90;;;;;;5040792;28;20030;-53
2023/06/09 06:06:37;;;;;;;23.23;7.90;;;13.90;99.90;;;;;;5022120;28;20111;-50
2023/06/09 06:09:03;;;;;;;23.98;8.23;;;14.00;99.90;;;;;;5029345;28;25375;-51
2023/06/09 06:11:29;;;;;;;21.92;8.00;;;14.10;99.90;;;;;;5030860;28;20048;-57
2023/06/09 06:13:55;;;;;;;24.98;8.38;;;14.10;99.90;;;;;;5034503;28;20045;-55
2023/06/09 06:16:21;;;;;;;24.92;8.57;;;14.20;99.90;;;;;;5032039;28;20048;-56
2023/06/09 06:18:46;;;;;;;26.83;7.95;;;14.30;99.90;;;;;;5036272;28;20113;-57
2023/06/09 06:21:12;;;;;;;20.08;7.68;;;14.40;99.90;;;;;;5039588;28;20052;-56
2023/06/09 06:23:38;;;;;;;21.00;8.13;;;14.50;99.90;;;;;;5029779;28;20200;-57
2023/06/09 06:26:04;;;;;;;15.77;7.57;;;14.60;99.90;;;;;;5036681;28;20049;-58
2023/06/09 06:28:29;;;;;;;21.83;7.15;;;14.70;99.90;;;;;;5036765;28;20405;-56
2023/06/09 06:30:55;;;;;;;24.05;7.72;;;14.80;99.90;;;;;;5039927;28;20040;-56
2023/06/09 06:33:21;;;;;;;21.27;7.05;;;14.80;99.90;;;;;;5037232;28;20489;-57
2023/06/09 06:35:47;;;;;;;14.75;7.55;;;14.90;99.90;;;;;;5028034;28;20092;-58
2023/06/09 06:38:12;;;;;;;22.30;6.93;;;15.00;99.90;;;;;;5033318;28;20436;-55
2023/06/09 06:40:38;;;;;;;21.65;7.43;;;15.10;99.90;;;;;;5035578;28;20045;-57
2023/06/09 06:43:04;;;;;;;21.95;7.32;;;15.30;99.90;;;;;;5038635;28;20127;-57
2023/06/09 06:45:30;;;;;;;20.33;6.53;;;15.40;99.90;;;;;;5035387;28;20126;-57
2023/06/09 06:47:56;;;;;;;17.88;7.22;;;15.50;99.90;;;;;;5033737;28;20452;-56
2023/06/09 06:50:22;;;;;;;23.38;7.60;;;15.50;99.90;;;;;;5037929;28;20037;-58
2023/06/09 06:52:48;;;;;;;14.07;6.50;;;15.70;99.90;;;;;;5034916;28;20044;-57
2023/06/09 06:55:14;;;;;;;21.92;7.60;;;15.70;99.90;;;;;;5034637;28;21981;-57
2023/06/09 06:57:40;;;;;;;20.60;7.05;;;15.80;99.90;;;;;;5036727;28;20945;-57
2023/06/09 07:00:16;;;;;;;20.35;7.90;;;15.80;99.90;;;;;;5035913;28;20049;-57
2023/06/09 07:02:48;;;;;;;20.35;7.53;;;15.90;99.90;;;;;;5037413;28;20079;-57
2023/06/09 07:05:15;;;;;;;24.75;7.05;;;16.00;99.90;;;;;;5034441;28;20041;-57
2023/06/09 07:07:43;;;;;;;20.48;7.70;;;16.10;99.90;;;;;;5036165;28;20041;-56
2023/06/09 07:10:10;;;;;;;17.85;7.10;;;16.20;99.90;;;;;;5038726;28;20413;-56
2023/06/09 07:12:36;;;;;;;22.15;7.05;;;16.30;99.90;;;;;;5035110;28;20037;-56
2023/06/09 07:15:03;;;;;;;20.55;7.65;;;16.40;99.90;;;;;;5036813;28;20041;-56
2023/06/09 07:17:29;;;;;;;19.10;7.00;;;16.50;99.90;;;;;;5021447;28;20572;-57
2023/06/09 07:19:55;;;;;;;24.58;7.82;;;16.60;99.90;;;;;;5034441;28;20037;-57
2023/06/09 07:22:21;;;;;;;22.95;6.90;;;16.70;99.90;;;;;;5030024;28;20821;-55
2023/06/09 07:24:47;;;;;;;23.10;7.65;;;16.80;99.90;;;;;;5026075;28;20127;-57
2023/06/09 07:27:13;;;;;;;23.38;7.70;;;16.90;99.90;;;;;;5021023;28;20045;-56
2023/06/09 07:29:41;;;;;;;17.35;6.32;;;17.00;99.90;;;;;;5053475;28;20513;-55
2023/06/09 07:32:08;;;;;;;18.73;7.05;;;17.10;99.90;;;;;;5038213;28;20849;-57
2023/06/09 07:34:35;;;;;;;16.00;6.22;;;17.30;99.90;;;;;;5035399;28;20039;-56
2023/06/09 07:37:05;;;;;;;21.52;7.50;;;17.40;99.90;;;;;;5035459;28;20425;-55
2023/06/09 07:39:31;;;;;;;15.93;6.95;;;17.50;99.90;;;;;;5021517;28;20045;-57
2023/06/09 07:41:57;;;;;;;16.77;6.85;;;17.70;99.90;;;;;;5036055;28;20045;-56
2023/06/09 07:44:24;;;;;;;15.82;6.68;;;17.80;99.90;;;;;;5038663;28;20035;-57
2023/06/09 07:46:50;;;;;;;19.25;7.03;;;17.90;99.90;;;;;;5039927;28;20067;-56
2023/06/09 07:49:16;;;;;;;15.25;6.45;;;18.00;99.90;;;;;;5039701;28;20502;-57
2023/06/09 07:51:43;;;;;;;13.05;6.28;;;18.10;99.90;;;;;;5036729;28;20566;-57
2023/06/09 07:54:09;;;;;;;16.60;7.07;;;18.20;99.90;;;;;;5036071;28;20046;-57
2023/06/09 07:56:36;;;;;;;19.42;6.65;;;18.30;99.90;;;;;;5038493;28;20124;-57
2023/06/09 07:59:02;;;;;;;18.35;6.68;;;18.50;99.90;;;;;;5033278;28;20056;-57
2023/06/09 08:01:32;;;;;;;17.58;6.53;;;18.60;99.90;;;;;;5033325;28;20501;-57
2023/06/09 08:04:01;;;;;;;14.88;5.93;;;18.70;99.90;;;;;;5035504;28;20036;-57
2023/06/09 08:06:28;;;;;;;15.65;6.05;;;18.80;99.90;;;;;;5034928;28;20322;-56
2023/06/09 08:08:55;;;;;;;13.68;6.30;;;18.90;99.90;;;;;;5037724;28;20112;-55
2023/06/09 08:11:21;;;;;;;17.58;6.40;;;19.00;99.90;;;;;;5037384;28;20037;-55
2023/06/09 08:13:47;;;;;;;20.15;6.38;;;19.10;99.90;;;;;;5039625;28;20041;-56
2023/06/09 08:16:12;;;;;;;17.92;6.40;;;19.30;99.90;;;;;;5038516;28;20078;-58
2023/06/09 08:18:38;;;;;;;14.38;6.50;;;19.40;99.90;;;;;;5035924;28;20089;-57
2023/06/09 08:21:05;;;;;;;18.95;6.60;;;19.50;99.90;;;;;;5041406;28;20037;-57
2023/06/09 08:23:30;;;;;;;18.00;6.65;;;19.60;99.90;;;;;;5035528;28;20052;-57
2023/06/09 08:25:56;;;;;;;17.52;6.90;;;19.70;99.90;;;;;;5036776;28;20505;-57
2023/06/09 08:28:22;;;;;;;13.60;5.97;;;19.80;99.90;;;;;;5036599;28;20045;-57
2023/06/09 08:30:48;;;;;;;14.32;6.05;;;19.90;99.90;;;;;;5035013;28;20072;-56
2023/06/09 08:33:14;;;;;;;15.38;6.60;;;20.00;99.90;;;;;;5036779;28;20037;-57
2023/06/09 08:35:40;;;;;;;16.55;7.20;;;20.10;99.90;;;;;;5037138;28;20041;-57
2023/06/09 08:38:06;;;;;;;12.07;6.03;;;20.30;99.90;;;;;;5037130;28;20504;-57
2023/06/09 08:40:32;;;;;;;13.90;6.28;;;20.40;99.90;;;;;;5037894;28;20044;-56
2023/06/09 08:43:00;;;;;;;14.27;6.55;;;20.50;99.90;;;;;;5033056;28;20041;-57
2023/06/09 08:45:26;;;;;;;15.38;6.70;;;20.60;99.90;;;;;;5035500;28;20124;-57
2023/06/09 08:48:00;;;;;;;13.80;6.45;;;20.70;99.90;;;;;;5036734;28;20420;-56
2023/06/09 08:50:29;;;;;;;17.13;6.50;;;20.80;99.90;;;;;;5036110;28;20041;-57
2023/06/09 08:52:56;;;;;;;14.35;5.95;;;20.90;99.90;;;;;;5035254;28;20409;-56
2023/06/09 08:55:22;;;;;;;15.45;5.78;;;21.10;99.90;;;;;;5035689;28;20106;-57
2023/06/09 08:57:49;;;;;;;13.82;6.15;;;21.30;99.90;;;;;;5035643;28;20107;-57
2023/06/09 09:00:15;;;;;;;19.45;6.70;;;21.40;99.90;;;;;;5043498;28;20088;-57
2023/06/09 09:02:43;;;;;;;17.83;5.72;;;21.50;99.90;;;;;;5034170;28;20150;-58
2023/06/09 09:05:12;;;;;;;14.48;5.47;;;21.60;99.90;;;;;;5035662;28;20045;-58
2023/06/09 09:07:42;;;;;;;12.32;5.55;;;21.70;99.90;;;;;;5034836;28;20040;-57
2023/06/09 09:10:08;;;;;;;14.60;5.85;;;21.80;99.90;;;;;;5035943;28;20044;-57
2023/06/09 09:12:50;;;;;;;12.65;5.63;;;21.90;99.90;;;;;;5021746;28;20048;-57
2023/06/09 09:15:17;;;;;;;13.45;5.20;;;22.00;99.90;;;;;;5039249;28;20127;-57
2023/06/09 09:17:47;;;;;;;13.65;5.82;;;22.10;99.90;;;;;;5032466;28;20029;-57
2023/06/09 09:20:14;;;;;;;12.00;4.82;;;22.30;99.90;;;;;;5034037;28;20060;-57
2023/06/09 09:22:50;;;;;;;12.38;5.57;;;22.40;99.90;;;;;;5032904;28;20074;-57
2023/06/09 09:25:27;;;;;;;14.77;5.53;;;22.60;99.90;;;;;;5032771;28;20029;-58
2023/06/09 09:28:04;;;;;;;11.25;4.95;;;22.70;99.90;;;;;;5032876;28;20136;-57
2023/06/09 09:31:02;;;;;;;14.40;5.90;;;22.80;99.40;;;;;;5036012;28;20152;-58
2023/06/09 09:33:28;;;;;;;14.70;5.30;;;22.90;99.40;;;;;;5036025;28;20049;-56
2023/06/09 09:35:58;;;;;;;13.88;5.47;;;23.00;99.00;;;;;;5037692;28;20514;-58
2023/06/09 09:38:27;;;;;;;14.38;5.82;;;23.20;98.80;;;;;;5035555;28;20037;-58
2023/06/09 09:40:58;;;;;;;13.15;4.75;;;23.30;98.70;;;;;;5034629;28;20041;-57
2023/06/09 09:43:30;;;;;;;15.23;5.05;;;23.40;98.40;;;;;;5034007;28;20121;-57
2023/06/09 09:46:00;;;;;;;9.52;4.68;;;23.60;98.20;;;;;;5036295;28;20029;-57
2023/06/09 09:48:26;;;;;;;11.52;4.88;;;23.80;97.50;;;;;;5036408;28;20490;-58
2023/06/09 09:50:54;;;;;;;10.20;4.50;;;23.80;96.50;;;;;;5036692;28;20037;-58
2023/06/09 09:53:27;;;;;;;14.35;4.82;;;23.90;96.10;;;;;;5032350;28;20048;-57
2023/06/09 09:55:59;;;;;;;11.15;4.30;;;24.00;95.60;;;;;;5036062;28;20048;-56
2023/06/09 09:58:31;;;;;;;8.98;4.28;;;24.20;95.20;;;;;;5034112;28;20116;-56
2023/06/09 10:01:02;;;;;;;10.98;5.00;;;24.40;94.40;;;;;;5016767;28;20138;-57
2023/06/09 10:03:29;;;;;;;12.10;4.93;;;24.50;93.20;;;;;;5036386;28;20033;-56
2023/06/09 10:05:58;;;;;;;14.25;4.65;;;24.50;93.20;;;;;;5036194;28;20045;-57
2023/06/09 10:08:28;;;;;;;12.32;4.82;;;24.70;92.70;;;;;;5035487;28;20102;-58
2023/06/09 10:11:00;;;;;;;12.20;4.72;;;24.80;92.10;;;;;;5034345;28;20524;-57
2023/06/09 10:13:27;;;;;;;12.07;4.60;;;24.90;90.90;;;;;;5034975;28;20045;-56
2023/06/09 10:15:56;;;;;;;10.20;4.38;;;24.90;90.20;;;;;;5036946;28;20049;-57
2023/06/09 10:18:23;;;;;;;11.35;4.57;;;25.00;88.10;;;;;;5036367;28;20435;-57
2023/06/09 10:20:51;;;;;;;8.18;4.35;;;25.20;89.20;;;;;;5033433;28;20037;-58
2023/06/09 10:23:18;;;;;;;11.07;4.25;;;25.20;87.70;;;;;;5033547;28;20053;-57
2023/06/09 10:25:48;;;;;;;11.35;4.43;;;25.40;89.10;;;;;;5035727;28;20435;-57
2023/06/09 10:28:17;;;;;;;11.73;4.75;;;25.50;88.30;;;;;;5036599;28;20059;-57
2023/06/09 10:30:47;;;;;;;9.95;4.63;;;25.70;87.70;;;;;;5037579;28;20146;-57
2023/06/09 10:33:36;;;;;;;11.13;4.55;;;25.80;85.80;;;;;;5041424;28;20450;-57
2023/06/09 10:36:07;;;;;;;13.80;4.90;;;26.00;83.70;;;;;;5038415;28;20051;-57
2023/06/09 10:38:44;;;;;;;12.65;4.07;;;26.00;83.70;;;;;;5038426;28;20072;-57
2023/06/09 10:41:19;;;;;;;12.38;5.32;;;26.10;83.20;;;;;;5036665;28;20126;-57
2023/06/09 10:44:03;;;;;;;10.32;4.30;;;26.20;82.70;;;;;;5035347;28;20485;-57
2023/06/09 10:46:46;;;;;;;9.85;4.20;;;26.30;80.80;;;;;;5038811;28;20561;-57
2023/06/09 10:49:34;;;;;;;;;;;26.30;79.20;;;;;;5039558;28;21031;-57
2023/06/09 10:52:01;;;;;;;10.20;4.40;;;26.30;79.10;;;;;;5037050;28;20023;-56
2023/06/09 10:54:28;;;;;;;9.02;4.15;;;26.50;81.60;;;;;;5041729;28;20112;-57
2023/06/09 10:56:56;;;;;;;10.02;5.03;;;26.60;80.70;;;;;;5037423;28;20497;-57
2023/06/09 10:59:25;;;;;;;12.38;5.10;;;26.80;79.90;;;;;;5029927;28;20047;-57
2023/06/09 11:02:00;;;;;;;8.80;4.78;;;26.90;78.60;;;;;;5036342;28;20037;-57
2023/06/09 11:04:37;;;;;;;9.70;4.60;;;27.00;77.80;;;;;;5040573;28;20073;-57
2023/06/09 11:07:22;;;;;;;12.20;4.90;;;27.10;78.00;;;;;;5039022;28;20044;-58
2023/06/09 11:09:49;;;;;;;15.45;5.13;;;27.20;77.50;;;;;;5040758;28;20038;-58
2023/06/09 11:12:36;;;;;;;7.60;4.70;;;27.20;76.40;;;;;;5040327;28;20037;-56
2023/06/09 11:15:03;;;;;;;9.82;4.47;;;27.30;76.60;;;;;;5038671;28;20053;-58
2023/06/09 11:17:44;;;;;;;9.75;5.10;;;27.40;75.40;;;;;;5021850;28;20037;-58
2023/06/09 11:20:14;;;;;;;10.17;4.60;;;27.50;75.30;;;;;;5034554;28;20037;-57
2023/06/09 11:22:53;;;;;;;9.20;4.50;;;27.60;74.20;;;;;;5037305;28;20632;-57
2023/06/09 11:25:18;;;;;;;13.48;4.28;;;27.70;74.10;;;;;;5039508;28;20041;-56
2023/06/09 11:27:46;;;;;;;10.70;4.30;;;27.80;73.50;;;;;;5041494;28;20084;-57
2023/06/09 11:30:18;;;;;;;9.45;4.30;;;27.90;74.00;;;;;;5039452;28;20091;-58
2023/06/09 11:32:48;;;;;;;5.80;4.13;;;28.10;72.80;;;;;;5037199;28;20061;-57
2023/06/09 11:35:29;;;;;;;10.20;4.72;;;28.30;72.00;;;;;;5038354;28;20040;-57
2023/06/09 11:37:57;;;;;;;9.63;4.70;;;28.30;70.20;;;;;;5035926;28;20040;-57
2023/06/09 11:40:23;;;;;;;9.32;4.80;;;28.40;69.60;;;;;;5039491;28;20040;-58
2023/06/09 11:42:50;;;;;;;8.82;4.50;;;28.40;70.60;;;;;;5037838;28;20034;-56
2023/06/09 11:45:16;;;;;;;10.52;5.00;;;28.40;69.60;;;;;;5037984;28;20049;-58
2023/06/09 11:47:44;;;;;;;11.02;4.38;;;28.50;67.70;;;;;;5035830;28;20049;-58
2023/06/09 11:50:13;;;;;;;15.27;4.50;;;28.50;67.30;;;;;;5036826;28;20405;-57
2023/06/09 11:52:44;;;;;;;7.68;4.15;;;28.60;66.70;;;;;;5036028;28;20138;-58
2023/06/09 11:55:12;;;;;;;10.82;4.32;;;28.70;66.40;;;;;;5036696;28;20044;-56
2023/06/09 11:57:38;;;;;;;8.30;4.20;;;28.70;65.80;;;;;;5039241;28;20045;-57
2023/06/09 12:00:15;;;;;;;10.23;4.60;;;28.80;65.30;;;;;;5037355;28;20045;-57
2023/06/09 12:02:47;;;;;;;11.43;4.47;;;28.80;64.30;;;;;;5038343;28;20040;-57
2023/06/09 12:05:14;;;;;;;10.80;4.32;;;28.80;63.40;;;;;;5038499;28;20048;-57
2023/06/09 12:07:44;;;;;;;5.80;3.78;;;28.80;63.50;;;;;;5037040;28;20041;-57
2023/06/09 12:10:12;;;;;;;10.77;4.70;;;28.90;64.00;;;;;;5037101;28;20033;-58
2023/06/09 12:12:45;;;;;;;11.70;4.68;;;29.10;63.40;;;;;;5040485;28;20064;-58
2023/06/09 12:15:11;;;;;;;9.25;4.32;;;29.20;61.10;;;;;;5034887;28;20086;-58
2023/06/09 12:17:37;;;;;;;11.63;4.60;;;29.20;62.60;;;;;;5033329;28;20153;-58
2023/06/09 12:20:28;;;;;;;9.95;4.13;;;29.20;61.70;;;;;;5018941;28;20033;-58
2023/06/09 12:23:13;;;;;;;6.85;3.90;;;29.20;62.90;;;;;;5000643;28;20413;-58
2023/06/09 12:25:49;;;;;;;6.93;3.90;;;29.30;61.50;;;;;;5036577;28;20049;-57
2023/06/09 12:28:23;;;;;;;8.15;4.30;;;29.40;61.20;;;;;;5029099;28;20131;-58
2023/06/09 12:30:53;;;;;;;10.50;4.05;;;29.50;61.70;;;;;;5033708;28;20045;-57
2023/06/09 12:33:24;;;;;;;9.93;4.18;;;29.60;61.30;;;;;;5032743;28;20809;-59
2023/06/09 12:35:51;;;;;;;10.18;4.45;;;29.70;60.60;;;;;;5035727;28;20037;-57
2023/06/09 12:38:19;;;;;;;8.05;3.92;;;29.80;60.40;;;;;;5028574;28;20068;-58
2023/06/09 12:40:52;;;;;;;9.20;4.10;;;30.00;60.50;;;;;;5037205;28;20037;-58
2023/06/09 12:43:25;;;;;;;14.48;4.20;;;29.90;60.00;;;;;;5024553;28;20053;-59
2023/06/09 12:45:57;;;;;;;9.02;4.13;;;30.00;60.80;;;;;;5052251;28;20137;-58